M I D A S
Marine Information and Data Acquisition System
Tripno 1180 of the Zeeleeuw from 2006-12-19 07:30:20 to 2006-12-19 15:50:48
Back to CruiseResearch ActivitiesStationsMapUnderway DataData graphs

EquipmentUnitsComments
TimeDGPSUTC
LatitudeDGPSDM.mWGS84
LongitudeDGPSDM.mWGS84
SpeedMeteo Stationm/sRelative wind speed
DirectionMeteo StationdegRelative wind direction
TemperatureMeteo Stationdeg CelciusAir temperature
PressureMeteo StationPaAtmospheric pressure
HumidityMeteo Station%Relative humidity
Missing or incorrect values are displayed as -999
Metereological data collected by the RV Zeeleeuw from 2006-12-19 07:30:50 to 2006-12-19 16:02:29
Time Latitude Longitude Speed Direction Temperature Pressure Humidity
2006-12-19 07:31 51°13.61 2°56.041 0.8 285 -0.6 103660 100
2006-12-19 07:32 51°13.628 2°55.964 0.9 25 -0.5 103660 100
2006-12-19 07:33 51°13.636 2°55.93 1.7 37 -0.5 103660 100
2006-12-19 07:34 51°13.67 2°55.85 1.3 39 -0.6 103650 100
2006-12-19 07:35 51°13.718 2°55.754 2.2 26 -0.6 103650 100
2006-12-19 07:36 51°13.735 2°55.727 2.2 12 -0.6 103650 100
2006-12-19 07:37 51°13.731 2°55.705 2.6 40 -0.6 103650 100
2006-12-19 07:38 51°13.732 2°55.701 2.9 73 -0.7 103650 100
2006-12-19 07:39 51°13.743 2°55.693 0.5 78 -0.7 103650 100
2006-12-19 07:40 51°13.792 2°55.659 0.8 360 -0.7 103660 100
2006-12-19 07:41 51°13.869 2°55.607 0.3 2 -0.8 103660 100
2006-12-19 07:42 51°13.953 2°55.545 0.7 351 -0.8 103650 100
2006-12-19 07:43 51°14.035 2°55.487 1.3 282 -0.7 103650 100
2006-12-19 07:44 51°14.121 2°55.422 2.1 281 -0.7 103650 100
2006-12-19 07:45 51°14.202 2°55.345 2.1 282 -0.6 103650 100
2006-12-19 07:46 51°14.265 2°55.243 2 280 -0.6 103660 100
2006-12-19 07:47 51°14.334 2°55.113 3.3 285 -0.6 103660 100
2006-12-19 07:48 51°14.405 2°54.939 4.4 287 -0.5 103660 100
2006-12-19 07:49 51°14.469 2°54.712 4.5 281 -0.5 103650 100
2006-12-19 07:50 51°14.496 2°54.433 6.9 283 -0.5 103640 100
2006-12-19 07:51 51°14.44 2°54.153 6.6 282 -0.4 103630 100
2006-12-19 07:52 51°14.328 2°53.884 7.8 283 -0.5 103600 100
2006-12-19 07:53 51°14.208 2°53.604 7.5 282 -0.5 103650 100
2006-12-19 07:54 51°14.089 2°53.321 7.7 285 -0.5 103650 100
2006-12-19 07:55 51°13.97 2°53.035 7.5 287 -0.4 103590 100
2006-12-19 07:56 51°13.85 2°52.743 8.5 321 -0.4 103580 100
2006-12-19 07:57 51°13.727 2°52.442 7.9 324 -0.4 103590 100
2006-12-19 07:58 51°13.604 2°52.141 8.7 286 -0.4 103590 100
2006-12-19 07:59 51°13.482 2°51.84 7.8 322 -0.4 103650 100
2006-12-19 08:00 51°13.358 2°51.531 7.3 282 -0.5 103580 100
2006-12-19 08:01 51°13.23 2°51.207 8 327 -0.6 103580 100
2006-12-19 08:02 51°13.101 2°50.881 7.8 284 -0.7 103580 100
2006-12-19 08:03 51°12.973 2°50.554 7.9 281 -0.7 103580 100
2006-12-19 08:04 51°12.846 2°50.227 7.8 322 -0.7 103590 100
2006-12-19 08:05 51°12.723 2°49.895 6.1 282 -0.7 103590 100
2006-12-19 08:06 51°12.603 2°49.564 6.7 325 -0.5 103580 100
2006-12-19 08:07 51°12.483 2°49.236 7.6 284 -0.5 103580 100
2006-12-19 08:08 51°12.362 2°48.91 7.9 287 -0.5 103570 100
2006-12-19 08:09 51°12.241 2°48.584 8.8 286 -0.5 103570 100
2006-12-19 08:10 51°12.119 2°48.256 8.7 283 -0.4 103570 100
2006-12-19 08:11 51°12 2°47.925 8.5 322 -0.4 103560 100
2006-12-19 08:12 51°11.88 2°47.593 8.2 284 -0.4 103560 100
2006-12-19 08:13 51°11.762 2°47.268 8.8 287 -0.4 103560 100
2006-12-19 08:14 51°11.656 2°46.923 8.2 285 -0.4 103570 100
2006-12-19 08:15 51°11.59 2°46.558 8.7 280 -0.4 103570 100
2006-12-19 08:16 51°11.523 2°46.191 7.4 284 -0.4 103570 100
2006-12-19 08:17 51°11.457 2°45.826 6.9 320 -0.5 103640 100
2006-12-19 08:18 51°11.391 2°45.463 7.8 322 -0.4 103620 100
2006-12-19 08:19 51°11.324 2°45.099 7.7 280 -0.4 103580 100
2006-12-19 08:20 51°11.268 2°44.73 6.9 281 -0.4 103580 100
2006-12-19 08:21 51°11.222 2°44.351 7.9 280 -0.3 103580 100
2006-12-19 08:22 51°11.188 2°43.982 6.8 283 -0.3 103580 100
2006-12-19 08:23 51°11.165 2°43.597 6.7 281 -0.3 103580 100
2006-12-19 08:24 51°11.148 2°43.226 7 286 -0.3 103590 100
2006-12-19 08:25 51°11.134 2°42.85 7 286 -0.3 103590 100
2006-12-19 08:26 51°11.12 2°42.508 4.7 282 -0.2 103620 100
2006-12-19 08:27 51°11.109 2°42.287 3.3 281 -0.2 103630 100
2006-12-19 08:28 51°11.1 2°42.114 3.6 281 -0.2 103670 100
2006-12-19 08:29 51°11.092 2°42.053 2.7 285 -0.2 103600 100
2006-12-19 08:30 51°11.092 2°42.053 1.4 284 -0.2 103640 100
2006-12-19 08:31 51°11.092 2°42.047 2.7 270 -0.1 103670 100
2006-12-19 08:32 51°11.088 2°42.041 2.7 77 -0.1 103680 100
2006-12-19 08:33 51°11.084 2°42.031 2.4 281 -0.1 103680 100
2006-12-19 08:34 51°11.08 2°42.02 1.7 287 -0.1 103670 100
2006-12-19 08:35 51°11.077 2°42.007 3.1 288 -0.1 103670 100
2006-12-19 08:36 51°11.073 2°41.994 3.7 286 -0.1 103670 100
2006-12-19 08:37 51°11.069 2°41.98 2.7 287 -0.1 103670 100
2006-12-19 08:38 51°11.064 2°41.968 3.5 282 -0.1 103670 100
2006-12-19 08:39 51°11.058 2°41.956 2.6 281 -0.1 103670 100
2006-12-19 08:40 51°11.052 2°41.944 3 282 -999 103680 100
2006-12-19 08:41 51°11.046 2°41.933 2.6 281 -999 103680 100
2006-12-19 08:42 51°11.038 2°41.918 3.1 288 -999 103670 100
2006-12-19 08:43 51°10.997 2°41.776 5.6 287 -999 103670 100
2006-12-19 08:44 51°10.921 2°41.488 6.9 285 -999 103670 100
2006-12-19 08:45 51°10.841 2°41.157 8 285 -999 103660 100
2006-12-19 08:46 51°10.758 2°40.81 7.3 283 -999 103670 100
2006-12-19 08:47 51°10.678 2°40.473 7.3 282 -999 103670 100
2006-12-19 08:48 51°10.597 2°40.133 6.6 285 -999 103670 100
2006-12-19 08:49 51°10.52 2°39.792 7.5 285 0.1 103680 100
2006-12-19 08:50 51°10.428 2°39.461 8 285 -999 103690 100
2006-12-19 08:51 51°10.336 2°39.127 7.5 287 0.1 103680 100
2006-12-19 08:52 51°10.241 2°38.79 8.1 287 0.1 103690 100
2006-12-19 08:53 51°10.149 2°38.459 8.2 286 0.1 103680 100
2006-12-19 08:54 51°10.059 2°38.133 7.5 287 -999 103690 100
2006-12-19 08:55 51°9.967 2°37.794 7.9 325 0.1 103680 100
2006-12-19 08:56 51°9.875 2°37.474 8 325 0.1 103670 100
2006-12-19 08:57 51°9.782 2°37.143 7.3 325 0.1 103680 100
2006-12-19 08:58 51°9.71 2°36.807 6.6 284 0.1 103680 100
2006-12-19 08:59 51°9.734 2°36.456 6.6 325 0.2 103680 100
2006-12-19 09:00 51°9.839 2°36.141 7.3 281 0.2 103690 100
2006-12-19 09:01 51°9.989 2°35.874 6.5 325 0.3 103690 100
2006-12-19 09:02 51°10.172 2°35.678 5.6 281 0.4 103680 100
2006-12-19 09:03 51°10.39 2°35.72 4.2 337 0.4 103690 100
2006-12-19 09:04 51°10.598 2°35.873 6.6 284 0.5 103690 100
2006-12-19 09:05 51°10.802 2°36.046 4.9 281 0.6 103690 100
2006-12-19 09:06 51°11.002 2°36.229 6 283 0.5 103700 100
2006-12-19 09:07 51°11.199 2°36.424 7.1 281 0.6 103690 100
2006-12-19 09:08 51°11.391 2°36.629 5.9 335 0.7 103690 100
2006-12-19 09:09 51°11.584 2°36.832 5.1 282 0.7 103690 100
2006-12-19 09:10 51°11.778 2°37.035 5.3 340 0.7 103680 100
2006-12-19 09:11 51°11.972 2°37.236 5.5 284 0.7 103680 100
2006-12-19 09:12 51°12.167 2°37.434 5.8 346 0.8 103680 100
2006-12-19 09:13 51°12.361 2°37.634 5.4 282 0.9 103680 100
2006-12-19 09:14 51°12.555 2°37.831 5.8 279 0.8 103680 100
2006-12-19 09:15 51°12.749 2°38.031 5.6 283 0.9 103620 100
2006-12-19 09:16 51°12.944 2°38.231 6.1 351 1 103680 100
2006-12-19 09:17 51°13.139 2°38.433 7.4 350 1 103680 100
2006-12-19 09:18 51°13.336 2°38.628 8.2 353 1.1 103600 100
2006-12-19 09:19 51°13.542 2°38.797 5.2 352 1 103590 100
2006-12-19 09:20 51°13.759 2°38.917 6 353 1 103640 100
2006-12-19 09:21 51°13.983 2°38.954 5 347 1.1 103600 100
2006-12-19 09:22 51°14.19 2°38.848 2.8 328 1.2 103610 100
2006-12-19 09:23 51°14.388 2°38.7 3.6 286 1.2 103610 100
2006-12-19 09:24 51°14.592 2°38.542 3.7 331 1.4 103610 100
2006-12-19 09:25 51°14.79 2°38.377 4 19 1.4 103600 100
2006-12-19 09:26 51°14.987 2°38.21 5.6 320 1.4 103600 100
2006-12-19 09:27 51°15.185 2°38.05 4.5 284 1.5 103610 100
2006-12-19 09:28 51°15.377 2°37.88 4.3 324 1.6 103600 100
2006-12-19 09:29 51°15.57 2°37.71 4.2 282 1.6 103600 100
2006-12-19 09:30 51°15.762 2°37.542 3.7 324 1.7 103680 100
2006-12-19 09:31 51°15.953 2°37.371 4.2 282 1.7 103610 100
2006-12-19 09:32 51°16.145 2°37.192 3.4 282 1.7 103610 100
2006-12-19 09:33 51°16.321 2°37.032 1.9 23 1.7 103650 100
2006-12-19 09:34 51°16.44 2°36.925 1 282 1.8 103650 100
2006-12-19 09:35 51°16.542 2°36.838 0.5 316 1.9 103650 100
2006-12-19 09:36 51°16.601 2°36.801 2.2 78 2 103650 100
2006-12-19 09:37 51°16.604 2°36.809 3.5 45 2 103670 100
2006-12-19 09:38 51°16.607 2°36.817 2.5 44 2 103670 100
2006-12-19 09:39 51°16.612 2°36.827 3 43 2 103670 100
2006-12-19 09:40 51°16.617 2°36.839 3.2 43 2 103670 100
2006-12-19 09:41 51°16.624 2°36.853 2.7 45 2 103670 100
2006-12-19 09:42 51°16.631 2°36.869 2.3 19 1.9 103670 100
2006-12-19 09:43 51°16.639 2°36.887 2.5 40 1.9 103670 100
2006-12-19 09:44 51°16.647 2°36.906 2.8 29 2 103680 100
2006-12-19 09:45 51°16.654 2°36.926 1.8 20 2.1 103670 100
2006-12-19 09:46 51°16.662 2°36.947 2 23 2.1 103670 100
2006-12-19 09:47 51°16.712 2°37.013 2.1 347 2.1 103660 100
2006-12-19 09:48 51°16.887 2°37.135 4.6 284 2 103630 100
2006-12-19 09:49 51°17.097 2°37.302 4.7 340 2 103620 100
2006-12-19 09:50 51°17.3 2°37.502 5.3 286 2 103620 100
2006-12-19 09:51 51°17.503 2°37.701 3.4 283 2 103690 100
2006-12-19 09:52 51°17.706 2°37.904 4.2 285 2 103620 100
2006-12-19 09:53 51°17.91 2°38.101 5.7 336 2.2 103630 100
2006-12-19 09:54 51°18.111 2°38.302 5.4 281 2.2 103630 100
2006-12-19 09:55 51°18.31 2°38.506 4.9 281 2.2 103630 100
2006-12-19 09:56 51°18.511 2°38.709 4.7 281 2.3 103630 100
2006-12-19 09:57 51°18.712 2°38.911 5.5 283 2.3 103640 100
2006-12-19 09:58 51°18.914 2°39.115 5.9 287 2.3 103640 100
2006-12-19 09:59 51°19.116 2°39.318 6.6 286 2.3 103640 100
2006-12-19 10:00 51°19.319 2°39.521 5.2 287 2.3 103640 100
2006-12-19 10:01 51°19.523 2°39.724 5.3 285 2.4 103650 100
2006-12-19 10:02 51°19.727 2°39.928 5.3 281 2.4 103640 100
2006-12-19 10:03 51°19.926 2°40.146 6.2 279 2.5 103640 100
2006-12-19 10:04 51°20.121 2°40.377 5.5 284 2.5 103640 100
2006-12-19 10:05 51°20.316 2°40.61 5.3 287 2.6 103640 100
2006-12-19 10:06 51°20.51 2°40.844 5.5 287 2.6 103640 100
2006-12-19 10:07 51°20.705 2°41.078 4.4 281 2.7 103640 100
2006-12-19 10:08 51°20.899 2°41.313 5.2 282 2.8 103630 100
2006-12-19 10:09 51°21.094 2°41.55 5.1 286 2.8 103630 100
2006-12-19 10:10 51°21.29 2°41.785 4.2 285 2.8 103630 100
2006-12-19 10:11 51°21.483 2°42.028 4.8 286 2.8 103630 100
2006-12-19 10:12 51°21.671 2°42.282 5 281 2.8 103630 100
2006-12-19 10:13 51°21.857 2°42.538 4.6 284 3 103630 100
2006-12-19 10:14 51°22.038 2°42.804 5.2 284 3 103620 100
2006-12-19 10:15 51°22.22 2°43.069 4.9 285 3.1 103620 100
2006-12-19 10:16 51°22.403 2°43.334 4.6 280 3.1 103630 100
2006-12-19 10:17 51°22.585 2°43.598 5.8 281 3.2 103630 100
2006-12-19 10:18 51°22.768 2°43.863 5.2 283 3.3 103630 100
2006-12-19 10:19 51°22.95 2°44.127 5.3 281 3.3 103630 100
2006-12-19 10:20 51°23.133 2°44.391 4.3 282 3.3 103630 100
2006-12-19 10:21 51°23.316 2°44.656 5 282 3.4 103620 100
2006-12-19 10:22 51°23.499 2°44.922 4 282 3.4 103620 100
2006-12-19 10:23 51°23.682 2°45.188 4.2 286 3.4 103630 100
2006-12-19 10:24 51°23.867 2°45.453 4.3 285 3.5 103620 100
2006-12-19 10:25 51°24.053 2°45.719 3.3 280 3.5 103620 100
2006-12-19 10:26 51°24.239 2°45.984 4.3 285 3.6 103620 100
2006-12-19 10:27 51°24.424 2°46.251 4.6 282 3.7 103620 100
2006-12-19 10:28 51°24.61 2°46.516 4.4 286 3.7 103690 100
2006-12-19 10:29 51°24.795 2°46.783 3.3 282 3.8 103620 100
2006-12-19 10:30 51°24.98 2°47.049 4.7 285 3.9 103700 100
2006-12-19 10:31 51°25.165 2°47.313 4.3 286 4 103690 100
2006-12-19 10:32 51°25.351 2°47.575 4.2 280 4 103700 100
2006-12-19 10:33 51°25.536 2°47.835 3.4 281 3.9 103690 100
2006-12-19 10:34 51°25.697 2°48.067 2 282 4 103700 100
2006-12-19 10:35 51°25.842 2°48.278 2.8 282 4 103680 100
2006-12-19 10:36 51°25.953 2°48.444 1 27 4 103690 100
2006-12-19 10:37 51°26.01 2°48.537 3.4 74 4.1 103690 100
2006-12-19 10:38 51°26.013 2°48.548 4.9 76 4.1 103690 100
2006-12-19 10:39 51°26.019 2°48.563 3.5 43 4 103690 100
2006-12-19 10:40 51°26.028 2°48.582 3.5 80 4.1 103690 100
2006-12-19 10:41 51°26.038 2°48.605 4.1 80 4.1 103690 100
2006-12-19 10:42 51°26.052 2°48.631 4.7 74 4.1 103680 100
2006-12-19 10:43 51°26.065 2°48.66 4.6 73 4.2 103690 100
2006-12-19 10:44 51°26.081 2°48.693 3 81 4.1 103690 100
2006-12-19 10:45 51°26.097 2°48.728 2.9 75 4.1 103660 100
2006-12-19 10:46 51°26.114 2°48.766 3.3 44 4.1 103650 100
2006-12-19 10:47 51°26.14 2°48.833 2 21 4.1 103650 100
2006-12-19 10:48 51°26.199 2°49.021 3.4 354 4.2 103630 100
2006-12-19 10:49 51°26.27 2°49.345 4 349 4.2 103610 100
2006-12-19 10:50 51°26.347 2°49.73 5.2 281 4.2 103600 100
2006-12-19 10:51 51°26.415 2°50.126 5 351 4.3 103590 100
2006-12-19 10:52 51°26.477 2°50.525 5.5 348 4.4 103600 100
2006-12-19 10:53 51°26.538 2°50.925 4.9 346 4.4 103600 100
2006-12-19 10:54 51°26.598 2°51.315 4.2 347 4.4 103600 100
2006-12-19 10:55 51°26.66 2°51.722 5.6 283 4.5 103590 100
2006-12-19 10:56 51°26.72 2°52.122 5 348 4.4 103600 100
2006-12-19 10:57 51°26.775 2°52.524 5.1 346 4.5 103590 100
2006-12-19 10:58 51°26.831 2°52.928 5.5 280 4.6 103590 100
2006-12-19 10:59 51°26.887 2°53.329 5.3 282 4.7 103590 100
2006-12-19 11:00 51°26.943 2°53.73 7.1 282 4.8 103590 100
2006-12-19 11:01 51°27 2°54.132 5.3 282 4.8 103590 100
2006-12-19 11:02 51°27.059 2°54.537 5.5 286 4.9 103580 100
2006-12-19 11:03 51°27.116 2°54.942 5.4 284 5 103580 100
2006-12-19 11:04 51°27.171 2°55.347 6.1 284 5 103590 100
2006-12-19 11:05 51°27.225 2°55.749 6.3 281 5 103580 100
2006-12-19 11:06 51°27.279 2°56.149 6.8 345 5 103590 100
2006-12-19 11:07 51°27.333 2°56.546 6.2 283 5.1 103590 100
2006-12-19 11:08 51°27.386 2°56.938 6.3 280 5 103580 100
2006-12-19 11:09 51°27.44 2°57.343 6.1 286 5.1 103580 100
2006-12-19 11:10 51°27.492 2°57.741 5.9 282 5.1 103580 100
2006-12-19 11:11 51°27.545 2°58.14 5.6 281 5.1 103580 100
2006-12-19 11:12 51°27.595 2°58.539 5.8 279 5.2 103570 100
2006-12-19 11:13 51°27.645 2°58.939 6.3 343 5.2 103570 100
2006-12-19 11:14 51°27.695 2°59.338 6.2 282 5.3 103580 100
2006-12-19 11:15 51°27.746 2°59.738 6.1 281 5.3 103580 100
2006-12-19 11:16 51°27.797 3°0.137 5.3 280 5.4 103580 100
2006-12-19 11:17 51°27.853 3°0.537 6.2 284 5.4 103580 100
2006-12-19 11:18 51°27.914 3°0.929 5.3 287 5.4 103580 100
2006-12-19 11:19 51°27.978 3°1.334 3.3 286 5.5 103580 100
2006-12-19 11:20 51°28.039 3°1.736 5.1 281 5.4 103580 100
2006-12-19 11:21 51°28.092 3°2.14 6.3 283 5.4 103580 100
2006-12-19 11:22 51°28.14 3°2.545 5.8 287 5.4 103590 100
2006-12-19 11:23 51°28.183 3°2.882 2.9 346 5.4 103630 100
2006-12-19 11:24 51°28.216 3°3.102 1.8 353 5.4 103640 100
2006-12-19 11:25 51°28.243 3°3.288 1.8 358 5.4 103630 100
2006-12-19 11:26 51°28.268 3°3.453 0.8 13 5.5 103650 100
2006-12-19 11:27 51°28.285 3°3.514 1.9 81 5.6 103620 100
2006-12-19 11:28 51°28.302 3°3.552 1.8 43 5.6 103670 100
2006-12-19 11:29 51°28.319 3°3.592 1.8 39 5.7 103670 100
2006-12-19 11:30 51°28.338 3°3.632 2.2 41 5.7 103660 100
2006-12-19 11:31 51°28.356 3°3.674 2 44 5.8 103670 100
2006-12-19 11:32 51°28.373 3°3.716 1.6 73 5.7 103660 100
2006-12-19 11:33 51°28.391 3°3.759 1.7 42 5.7 103670 100
2006-12-19 11:34 51°28.407 3°3.801 1.7 40 5.8 103670 100
2006-12-19 11:35 51°28.422 3°3.844 2.3 31 5.8 103670 100
2006-12-19 11:36 51°28.437 3°3.885 2.5 33 5.9 103670 100
2006-12-19 11:37 51°28.436 3°3.945 2.7 357 5.9 103670 100
2006-12-19 11:38 51°28.389 3°3.949 4.7 281 5.9 103660 100
2006-12-19 11:39 51°28.353 3°3.847 5.9 285 5.9 103660 100
2006-12-19 11:40 51°28.318 3°3.719 6 287 5.9 103660 100
2006-12-19 11:41 51°28.292 3°3.601 5.1 286 5.8 103660 100
2006-12-19 11:42 51°28.286 3°3.524 3.8 285 5.8 103660 100
2006-12-19 11:43 51°28.278 3°3.492 3.7 280 5.8 103660 100
2006-12-19 11:44 51°28.272 3°3.491 3.3 350 5.9 103660 100
2006-12-19 11:45 51°28.266 3°3.501 3.2 348 5.9 103670 100
2006-12-19 11:46 51°28.256 3°3.516 3 281 5.8 103660 100
2006-12-19 11:47 51°28.245 3°3.53 3 348 5.8 103660 100
2006-12-19 11:48 51°28.236 3°3.535 3.2 352 5.8 103660 100
2006-12-19 11:49 51°28.229 3°3.537 3.4 347 5.8 103660 100
2006-12-19 11:50 51°28.222 3°3.538 2.9 352 5.8 103660 100
2006-12-19 11:51 51°28.212 3°3.541 3.5 350 5.8 103660 100
2006-12-19 11:52 51°28.201 3°3.546 3.5 350 5.9 103660 100
2006-12-19 11:53 51°28.193 3°3.561 3.4 353 5.9 103660 99
2006-12-19 11:54 51°28.19 3°3.582 3.4 359 5.9 103660 99
2006-12-19 11:55 51°28.189 3°3.608 2.7 359 5.9 103660 98
2006-12-19 11:56 51°28.191 3°3.635 3.1 359 5.9 103660 98
2006-12-19 11:57 51°28.19 3°3.643 3.5 281 5.9 103660 97
2006-12-19 11:58 51°28.211 3°3.598 4.3 281 6 103660 97
2006-12-19 11:59 51°28.258 3°3.529 5.2 283 6.1 103660 96
2006-12-19 12:00 51°28.278 3°3.501 2.7 281 6.1 103660 95
2006-12-19 12:01 51°28.287 3°3.514 3 357 6.1 103660 95
2006-12-19 12:02 51°28.296 3°3.535 3.5 359 6.2 103660 95
2006-12-19 12:03 51°28.304 3°3.559 3.3 2 6.2 103660 98
2006-12-19 12:04 51°28.303 3°3.573 3.8 358 6.1 103650 98
2006-12-19 12:05 51°28.299 3°3.585 3.7 3 6 103650 99
2006-12-19 12:06 51°28.299 3°3.602 3.2 7 5.9 103660 99
2006-12-19 12:07 51°28.283 3°3.616 3 16 5.9 103650 99
2006-12-19 12:08 51°28.215 3°3.739 3.6 282 5.8 103660 98
2006-12-19 12:09 51°28.066 3°3.994 4.8 282 5.8 103650 98
2006-12-19 12:10 51°27.928 3°4.289 5 280 5.9 103650 98
2006-12-19 12:11 51°27.8 3°4.596 4.4 285 5.9 103650 98
2006-12-19 12:12 51°27.67 3°4.899 4.3 281 5.9 103650 98
2006-12-19 12:13 51°27.541 3°5.202 5 345 5.9 103650 98
2006-12-19 12:14 51°27.409 3°5.502 4.8 281 6 103650 95
2006-12-19 12:15 51°27.294 3°5.822 4.6 283 6.1 103640 93
2006-12-19 12:16 51°27.189 3°6.152 5 286 6.1 103650 92
2006-12-19 12:17 51°27.082 3°6.478 5.1 344 6.1 103650 88
2006-12-19 12:18 51°26.973 3°6.801 4.2 287 6.2 103650 86
2006-12-19 12:19 51°26.869 3°7.128 4.7 287 6.2 103650 86
2006-12-19 12:20 51°26.768 3°7.458 4.1 286 6.3 103650 86
2006-12-19 12:21 51°26.665 3°7.786 4.2 285 6.3 103650 86
2006-12-19 12:22 51°26.58 3°8.052 1.4 1 6.2 103650 85
2006-12-19 12:23 51°26.528 3°8.221 3.1 10 6.3 103650 86
2006-12-19 12:24 51°26.464 3°8.25 4 359 6.4 103650 85
2006-12-19 12:25 51°26.472 3°8.264 2.9 354 6.3 103660 84
2006-12-19 12:26 51°26.485 3°8.281 3.3 281 6.3 103650 86
2006-12-19 12:27 51°26.496 3°8.293 3.8 357 6.2 103650 85
2006-12-19 12:28 51°26.506 3°8.294 4.2 353 6.2 103650 85
2006-12-19 12:29 51°26.513 3°8.291 3.5 360 6.3 103650 87
2006-12-19 12:30 51°26.519 3°8.295 4.7 356 6.2 103650 87
2006-12-19 12:31 51°26.526 3°8.303 4.2 8 6.2 103640 89
2006-12-19 12:32 51°26.533 3°8.316 3.7 7 6.1 103640 90
2006-12-19 12:33 51°26.542 3°8.333 4.7 13 6 103640 90
2006-12-19 12:34 51°26.552 3°8.35 3.2 12 6 103640 90
2006-12-19 12:35 51°26.563 3°8.369 2.6 6 6 103640 90
2006-12-19 12:36 51°26.575 3°8.388 2.6 10 6 103640 89
2006-12-19 12:37 51°26.586 3°8.41 3.3 10 6 103640 87
2006-12-19 12:38 51°26.594 3°8.426 3.3 15 6 103640 85
2006-12-19 12:39 51°26.55 3°8.409 3.8 359 6 103640 84
2006-12-19 12:40 51°26.481 3°8.359 4.3 358 6 103630 83
2006-12-19 12:41 51°26.458 3°8.333 3.4 360 6.1 103640 82
2006-12-19 12:42 51°26.463 3°8.325 3.9 352 6.1 103640 81
2006-12-19 12:43 51°26.471 3°8.322 3.8 356 6.2 103640 83
2006-12-19 12:44 51°26.482 3°8.323 3.4 359 6.2 103640 80
2006-12-19 12:45 51°26.493 3°8.327 3.7 358 6.1 103630 79
2006-12-19 12:46 51°26.505 3°8.332 3.6 357 6.1 103630 77
2006-12-19 12:47 51°26.519 3°8.339 4.1 280 6.2 103640 79
2006-12-19 12:48 51°26.533 3°8.347 4.3 282 6.2 103630 82
2006-12-19 12:49 51°26.547 3°8.358 4.1 346 6.2 103640 84
2006-12-19 12:50 51°26.561 3°8.372 4.3 281 6.2 103630 84
2006-12-19 12:51 51°26.576 3°8.387 3.9 286 6.2 103640 85
2006-12-19 12:52 51°26.59 3°8.404 4.4 286 6.2 103640 85
2006-12-19 12:53 51°26.605 3°8.4 5.6 287 6.1 103640 85
2006-12-19 12:54 51°26.698 3°8.337 6.7 282 6.1 103620 84
2006-12-19 12:55 51°26.797 3°8.528 2.2 280 6.2 103630 85
2006-12-19 12:56 51°26.72 3°8.808 3.1 282 6.3 103630 84
2006-12-19 12:57 51°26.607 3°9.125 4.1 281 6.3 103580 83
2006-12-19 12:58 51°26.474 3°9.414 3.7 280 6.3 103580 82
2006-12-19 12:59 51°26.329 3°9.705 3.9 283 6.4 103570 82
2006-12-19 13:00 51°26.186 3°9.988 4.4 286 6.3 103570 82
2006-12-19 13:01 51°26.035 3°10.26 3.9 281 6.3 103570 84
2006-12-19 13:02 51°25.882 3°10.526 4.7 286 6.3 103570 84
2006-12-19 13:03 51°25.725 3°10.784 4.6 280 6.3 103570 81
2006-12-19 13:04 51°25.566 3°11.043 5.2 287 6.3 103570 78
2006-12-19 13:05 51°25.395 3°11.291 5.4 284 6.4 103560 77
2006-12-19 13:06 51°25.23 3°11.546 4.2 285 6.5 103560 75
2006-12-19 13:07 51°25.114 3°11.865 4.2 282 6.5 103570 73
2006-12-19 13:08 51°24.996 3°12.199 4.1 280 6.4 103570 73
2006-12-19 13:09 51°24.894 3°12.546 4.1 280 6.4 103560 72
2006-12-19 13:10 51°24.778 3°12.878 4.9 286 6.4 103610 71
2006-12-19 13:11 51°24.593 3°13.104 4.5 288 6.4 103560 71
2006-12-19 13:12 51°24.376 3°13.231 7.4 346 6.6 103550 74
2006-12-19 13:13 51°24.153 3°13.24 7.3 280 6.5 103540 78
2006-12-19 13:14 51°23.93 3°13.244 7.4 350 6.3 103540 81
2006-12-19 13:15 51°23.708 3°13.252 7.3 348 6.3 103550 82
2006-12-19 13:16 51°23.478 3°13.266 7.3 348 6.2 103550 82
2006-12-19 13:17 51°23.257 3°13.264 7.1 347 6.2 103550 81
2006-12-19 13:18 51°23.037 3°13.262 5.8 351 6.2 103550 81
2006-12-19 13:19 51°22.887 3°13.282 3 6 6.2 103590 80
2006-12-19 13:20 51°22.773 3°13.332 3.8 5 6.2 103590 80
2006-12-19 13:21 51°22.697 3°13.29 4.2 4 6.2 103590 80
2006-12-19 13:22 51°22.646 3°13.231 5.7 356 6.3 103600 80
2006-12-19 13:23 51°22.629 3°13.209 4.1 352 6.2 103590 79
2006-12-19 13:24 51°22.629 3°13.208 3.9 350 6.2 103620 77
2006-12-19 13:25 51°22.631 3°13.212 3.7 349 6.1 103620 77
2006-12-19 13:26 51°22.633 3°13.221 3.8 351 6.1 103620 78
2006-12-19 13:27 51°22.635 3°13.232 3.3 353 6.1 103620 77
2006-12-19 13:28 51°22.637 3°13.245 3.5 359 6.1 103620 77
2006-12-19 13:29 51°22.638 3°13.26 3.5 4 6.2 103620 79
2006-12-19 13:30 51°22.639 3°13.276 4.1 10 6.2 103620 78
2006-12-19 13:31 51°22.639 3°13.291 3.5 5 6.2 103620 77
2006-12-19 13:32 51°22.639 3°13.307 3.7 9 6.2 103630 75
2006-12-19 13:33 51°22.639 3°13.322 4.2 9 6.2 103620 75
2006-12-19 13:34 51°22.638 3°13.336 4.1 12 6.3 103630 75
2006-12-19 13:35 51°22.634 3°13.339 3.8 8 6.3 103630 75
2006-12-19 13:36 51°22.622 3°13.306 5.1 358 6.3 103620 75
2006-12-19 13:37 51°22.611 3°13.249 5 354 6.3 103630 74
2006-12-19 13:38 51°22.602 3°13.2 4.1 353 6.3 103620 73
2006-12-19 13:39 51°22.602 3°13.194 3.7 354 6.3 103620 74
2006-12-19 13:40 51°22.603 3°13.193 4.1 358 6.4 103620 74
2006-12-19 13:41 51°22.604 3°13.195 3.6 358 6.4 103630 74
2006-12-19 13:42 51°22.605 3°13.201 3.6 357 6.4 103620 74
2006-12-19 13:43 51°22.605 3°13.209 3.7 358 6.5 103620 76
2006-12-19 13:44 51°22.606 3°13.219 3.2 3 6.4 103620 72
2006-12-19 13:45 51°22.605 3°13.232 3.6 7 6.5 103620 71
2006-12-19 13:46 51°22.605 3°13.245 4.1 9 6.5 103620 73
2006-12-19 13:47 51°22.605 3°13.259 4 12 6.5 103630 72
2006-12-19 13:48 51°22.605 3°13.272 3.3 11 6.5 103630 70
2006-12-19 13:49 51°22.605 3°13.284 3.5 16 6.5 103630 68
2006-12-19 13:50 51°22.605 3°13.297 2.9 7 6.6 103630 71
2006-12-19 13:51 51°22.604 3°13.31 3 6 6.6 103630 71
2006-12-19 13:52 51°22.603 3°13.322 3.7 10 6.6 103630 72
2006-12-19 13:53 51°22.602 3°13.335 2.6 17 6.6 103630 75
2006-12-19 13:54 51°22.6 3°13.344 3.4 6 6.6 103630 73
2006-12-19 13:55 51°22.578 3°13.251 7 349 6.6 103630 74
2006-12-19 13:56 51°22.543 3°13.01 9.7 280 6.6 103620 72
2006-12-19 13:57 51°22.499 3°12.685 9.8 286 6.6 103620 72
2006-12-19 13:58 51°22.446 3°12.35 10 281 6.6 103620 73
2006-12-19 13:59 51°22.352 3°12.038 9.4 283 6.5 103610 75
2006-12-19 14:00 51°22.246 3°11.732 9.2 350 6.5 103620 75
2006-12-19 14:01 51°22.147 3°11.415 9.2 345 6.4 103610 75
2006-12-19 14:02 51°22.039 3°11.092 8.9 347 6.4 103620 74
2006-12-19 14:03 51°21.933 3°10.772 9 282 6.4 103630 73
2006-12-19 14:04 51°21.828 3°10.457 8.7 285 6.4 103620 71
2006-12-19 14:05 51°21.722 3°10.141 8.5 285 6.4 103630 70
2006-12-19 14:06 51°21.608 3°9.831 8 349 6.5 103630 69
2006-12-19 14:07 51°21.489 3°9.527 9.6 348 6.5 103620 72
2006-12-19 14:08 51°21.366 3°9.229 9.3 351 6.5 103620 72
2006-12-19 14:09 51°21.242 3°8.929 9.5 348 6.5 103630 73
2006-12-19 14:10 51°21.117 3°8.63 8.5 349 6.5 103630 72
2006-12-19 14:11 51°20.991 3°8.331 8.2 349 6.5 103640 71
2006-12-19 14:12 51°20.866 3°8.033 8.5 348 6.5 103640 73
2006-12-19 14:13 51°20.741 3°7.735 8.1 349 6.4 103630 75
2006-12-19 14:14 51°20.62 3°7.442 8.6 351 6.4 103640 75
2006-12-19 14:15 51°20.494 3°7.138 9.1 351 6.4 103640 75
2006-12-19 14:16 51°20.371 3°6.837 8.5 282 6.4 103640 74
2006-12-19 14:17 51°20.25 3°6.54 9.1 351 6.4 103640 73
2006-12-19 14:18 51°20.124 3°6.234 8.6 348 6.4 103640 73
2006-12-19 14:19 51°19.999 3°5.934 8.3 349 6.4 103640 73
2006-12-19 14:20 51°19.873 3°5.634 7.5 347 6.4 103640 71
2006-12-19 14:21 51°19.748 3°5.333 8.7 349 6.5 103640 69
2006-12-19 14:22 51°19.624 3°5.031 8.4 349 6.5 103650 69
2006-12-19 14:23 51°19.5 3°4.729 8.5 283 6.6 103650 69
2006-12-19 14:24 51°19.373 3°4.43 7.9 346 6.6 103650 68
2006-12-19 14:25 51°19.248 3°4.128 7.9 345 6.6 103660 67
2006-12-19 14:26 51°19.123 3°3.828 7.9 281 6.6 103650 67
2006-12-19 14:27 51°18.996 3°3.534 8.5 279 6.7 103650 67
2006-12-19 14:28 51°18.87 3°3.24 8.6 348 6.7 103650 69
2006-12-19 14:29 51°18.749 3°2.941 8.4 346 6.7 103650 70
2006-12-19 14:30 51°18.633 3°2.638 8.5 281 6.7 103650 69
2006-12-19 14:31 51°18.518 3°2.334 7.4 281 6.6 103650 69
2006-12-19 14:32 51°18.409 3°2.025 8.3 349 6.7 103650 70
2006-12-19 14:33 51°18.295 3°1.719 8.4 346 6.6 103660 69
2006-12-19 14:34 51°18.181 3°1.416 8 347 6.6 103650 70
2006-12-19 14:35 51°18.067 3°1.112 7.4 347 6.6 103660 68
2006-12-19 14:36 51°17.951 3°0.809 7.9 351 6.6 103660 66
2006-12-19 14:37 51°17.834 3°0.503 7.8 348 6.6 103660 64
2006-12-19 14:38 51°17.718 3°0.195 7.9 351 6.6 103670 64
2006-12-19 14:39 51°17.606 2°59.88 9.6 351 6.7 103660 67
2006-12-19 14:40 51°17.501 2°59.557 8.4 282 6.7 103660 67
2006-12-19 14:41 51°17.4 2°59.232 8.3 284 6.7 103660 66
2006-12-19 14:42 51°17.301 2°58.907 8.9 348 6.7 103660 66
2006-12-19 14:43 51°17.203 2°58.579 9 348 6.7 103660 68
2006-12-19 14:44 51°17.113 2°58.245 9.6 281 6.7 103670 68
2006-12-19 14:45 51°17.027 2°57.908 8.9 347 6.8 103670 65
2006-12-19 14:46 51°16.947 2°57.57 9 348 6.8 103670 66
2006-12-19 14:47 51°16.867 2°57.231 8.4 353 6.8 103670 68
2006-12-19 14:48 51°16.787 2°56.892 8.5 345 6.7 103670 65
2006-12-19 14:49 51°16.708 2°56.553 8.7 349 6.7 103620 66
2006-12-19 14:50 51°16.631 2°56.215 8.1 350 6.7 103620 66
2006-12-19 14:51 51°16.552 2°55.877 9.2 351 6.8 103620 66
2006-12-19 14:52 51°16.478 2°55.533 8.1 350 6.7 103620 63
2006-12-19 14:53 51°16.403 2°55.188 9.8 352 6.8 103670 64
2006-12-19 14:54 51°16.335 2°54.864 8.3 349 6.8 103640 64
2006-12-19 14:55 51°16.283 2°54.586 7.4 350 6.8 103680 62
2006-12-19 14:56 51°16.247 2°54.399 5.6 2 6.9 103660 66
2006-12-19 14:57 51°16.226 2°54.286 5.3 10 6.9 103670 67
2006-12-19 14:58 51°16.228 2°54.288 4.7 21 6.9 103670 67
2006-12-19 14:59 51°16.226 2°54.288 4.7 17 6.9 103670 67
2006-12-19 15:00 51°16.224 2°54.285 4.3 21 6.9 103670 67
2006-12-19 15:01 51°16.221 2°54.281 3.8 23 6.8 103680 67
2006-12-19 15:02 51°16.216 2°54.276 4.5 24 6.8 103670 68
2006-12-19 15:03 51°16.211 2°54.27 4.3 31 6.8 103670 68
2006-12-19 15:04 51°16.205 2°54.262 4.4 33 6.9 103680 69
2006-12-19 15:05 51°16.197 2°54.247 4.6 21 6.9 103670 66
2006-12-19 15:06 51°16.207 2°54.082 9 282 6.9 103640 67
2006-12-19 15:07 51°16.359 2°53.935 10.1 282 6.9 103640 63
2006-12-19 15:08 51°16.51 2°53.717 10.6 283 6.9 103640 62
2006-12-19 15:09 51°16.664 2°53.467 10.7 287 7 103630 60
2006-12-19 15:10 51°16.82 2°53.215 10.5 283 6.9 103640 59
2006-12-19 15:11 51°16.968 2°52.959 9.9 285 7 103640 59
2006-12-19 15:12 51°17.13 2°52.708 11 288 7 103640 61
2006-12-19 15:13 51°17.298 2°52.475 9.9 287 7 103630 59
2006-12-19 15:14 51°17.469 2°52.244 9.6 283 7 103640 66
2006-12-19 15:15 51°17.645 2°52.021 11.7 282 7 103640 63
2006-12-19 15:16 51°17.82 2°51.802 10.8 280 7 103640 61
2006-12-19 15:17 51°17.993 2°51.585 11.1 284 7 103640 61
2006-12-19 15:18 51°18.174 2°51.372 9.9 287 7 103640 62
2006-12-19 15:19 51°18.306 2°51.218 8.2 284 7 103670 61
2006-12-19 15:20 51°18.394 2°51.114 6.7 282 7 103680 60
2006-12-19 15:21 51°18.464 2°51.043 6.8 281 7 103680 61
2006-12-19 15:22 51°18.504 2°51.009 3.9 281 7 103680 59
2006-12-19 15:23 51°18.504 2°51 3.5 281 7 103700 60
2006-12-19 15:24 51°18.503 2°50.99 3.4 1 7 103700 58
2006-12-19 15:25 51°18.504 2°50.979 3.8 357 7 103700 60
2006-12-19 15:26 51°18.504 2°50.968 4.1 358 7 103700 59
2006-12-19 15:27 51°18.506 2°50.936 5 359 7.1 103700 60
2006-12-19 15:28 51°18.425 2°50.864 1.1 283 7.1 103700 62
2006-12-19 15:29 51°18.264 2°51.049 3.9 285 7.1 103700 59
2006-12-19 15:30 51°18.091 2°51.268 4.3 282 7.1 103700 59
2006-12-19 15:31 51°17.915 2°51.479 4.1 288 7 103700 59
2006-12-19 15:32 51°17.743 2°51.696 3.8 286 7 103650 60
2006-12-19 15:33 51°17.558 2°51.892 3.3 280 7.1 103650 61
2006-12-19 15:34 51°17.362 2°52.066 3.7 282 7.1 103660 63
2006-12-19 15:35 51°17.163 2°52.232 3.2 286 7 103660 59
2006-12-19 15:36 51°16.964 2°52.394 3.4 282 7 103650 60
2006-12-19 15:37 51°16.766 2°52.56 3.2 283 7.1 103660 64
2006-12-19 15:38 51°16.566 2°52.726 3.6 287 7.1 103660 63
2006-12-19 15:39 51°16.364 2°52.89 2.4 280 7.1 103660 62
2006-12-19 15:40 51°16.161 2°53.05 3.4 281 7.1 103660 61
2006-12-19 15:41 51°15.964 2°53.218 4 287 7.1 103660 62
2006-12-19 15:42 51°15.766 2°53.383 4.4 285 7.1 103660 63
2006-12-19 15:43 51°15.566 2°53.547 4.7 285 7 103660 61
2006-12-19 15:44 51°15.37 2°53.721 4 282 7 103660 59
2006-12-19 15:45 51°15.182 2°53.911 5.1 286 7 103660 61
2006-12-19 15:46 51°15.001 2°54.117 5.8 287 7 103660 62
2006-12-19 15:47 51°14.819 2°54.328 4.5 280 7 103650 60
2006-12-19 15:48 51°14.651 2°54.56 3.9 282 7 103660 61
2006-12-19 15:49 51°14.49 2°54.803 5.2 285 7 103660 62
2006-12-19 15:50 51°14.348 2°55.069 5.7 282 7 103660 62
2006-12-19 15:51 51°14.23 2°55.31 4.7 280 7 103680 63
2006-12-19 15:52 51°14.1 2°55.432 2.1 280 7 103690 64
2006-12-19 15:53 51°13.982 2°55.512 1.6 284 7 103690 64
2006-12-19 15:54 51°13.88 2°55.585 2.2 287 7 103720 62
2006-12-19 15:55 51°13.79 2°55.665 1.8 283 6.9 103720 62
2006-12-19 15:56 51°13.715 2°55.771 1.9 279 6.9 103710 60
2006-12-19 15:57 51°13.66 2°55.881 2.1 287 6.8 103710 60
2006-12-19 15:58 51°13.623 2°55.987 1.7 283 6.8 103710 61
2006-12-19 15:59 51°13.608 2°56.063 2.1 281 6.8 103710 61
2006-12-19 16:00 51°13.604 2°56.08 0.6 281 6.7 103710 62
2006-12-19 16:01 51°13.598 2°56.091 0.8 288 6.6 103710 62